Time;durP1;ratioP1;P1;durP2;ratioP2;P2;SDS_P1;SDS_P2;PMS_P1;PMS_P2;Temp;Humidity;BMP_temperature;BMP_pressure;BME280_temperature;BME280_humidity;BME280_pressure;Samples;Min_cycle;Max_cycle;Signal;HPM_P1;HPM_P2
2023/08/24 12:33:22;;;;;;;7.35;1.92;;;;;;;;;;5125451;27;20135;-63
2023/08/24 12:35:49;;;;;;;4.70;1.77;;;;;;;;;;5126238;28;20043;-63
2023/08/24 12:38:16;;;;;;;5.82;1.80;;;;;;;;;;5123071;27;20084;-64
2023/08/24 12:40:42;;;;;;;6.00;1.70;;;;;;;;;;5133374;27;20402;-62
2023/08/24 12:43:09;;;;;;;4.30;1.38;;;;;;;;;;5113840;27;20422;-65
2023/08/24 12:45:37;;;;;;;4.10;1.85;;;;;;;;;;5132304;27;20044;-65
2023/08/24 12:48:04;;;;;;;6.40;1.67;;;;;;;;;;5127259;27;20083;-65
2023/08/24 12:50:30;;;;;;;6.70;2.65;;;;;;;;;;5127956;27;20074;-64
2023/08/24 12:52:59;;;;;;;7.45;1.65;;;;;;;;;;5123665;28;20678;-64
2023/08/24 12:55:27;;;;;;;9.75;1.75;;;;;;;;;;5124800;28;20044;-68
2023/08/24 12:57:53;;;;;;;7.00;1.73;;;;;;;;;;5122546;28;20490;-66
2023/08/24 13:00:21;;;;;;;3.58;1.50;;;;;;;;;;5124617;28;20627;-65
2023/08/24 13:02:48;;;;;;;3.45;1.50;;;;;;;;;;5123764;28;20051;-65
2023/08/24 13:05:15;;;;;;;3.08;1.77;;;;;;;;;;5124966;28;20049;-66
2023/08/24 13:07:42;;;;;;;5.97;1.92;;;;;;;;;;5123635;28;20035;-65
2023/08/24 13:10:09;;;;;;;6.38;2.15;;;;;;;;;;5126089;28;20043;-65
2023/08/24 13:12:36;;;;;;;4.47;1.40;;;;;;;;;;5124731;28;20051;-65
2023/08/24 13:15:03;;;;;;;6.97;1.45;;;;;;;;;;5125494;27;20430;-65
2023/08/24 13:17:30;;;;;;;7.15;1.60;;;;;;;;;;5124266;27;20543;-65
2023/08/24 13:19:57;;;;;;;3.90;1.67;;;;;;;;;;5125175;28;20047;-65
2023/08/24 13:22:23;;;;;;;6.05;1.92;;;;;;;;;;5125364;27;20086;-65
2023/08/24 13:24:50;;;;;;;4.35;1.60;;;;;;;;;;5125049;28;20078;-65
2023/08/24 13:27:16;;;;;;;5.22;1.95;;;;;;;;;;5124933;28;20426;-66
2023/08/24 13:29:43;;;;;;;4.22;1.75;;;;;;;;;;5124437;28;20167;-66
2023/08/24 13:32:09;;;;;;;5.15;2.42;;;;;;;;;;5124419;27;20079;-65
2023/08/24 13:34:36;;;;;;;3.92;1.50;;;;;;;;;;5125285;27;20479;-65
2023/08/24 13:37:02;;;;;;;3.63;1.55;;;;;;;;;;5125035;28;20480;-65
2023/08/24 13:39:29;;;;;;;11.93;1.83;;;;;;;;;;5124444;28;20147;-65
2023/08/24 13:41:59;;;;;;;7.18;1.83;;;;;;;;;;5124786;27;20043;-66
2023/08/24 13:44:25;;;;;;;5.20;1.58;;;;;;;;;;5112803;27;20051;-66
2023/08/24 13:46:52;;;;;;;5.90;1.55;;;;;;;;;;5111092;28;20062;-65
2023/08/24 13:49:18;;;;;;;7.30;1.48;;;;;;;;;;5110631;28;20070;-65
2023/08/24 13:52:05;;;;;;;5.72;1.70;;;;;;;;;;5110390;28;20393;-65
2023/08/24 13:54:32;;;;;;;6.70;1.70;;;;;;;;;;5111452;28;20492;-65
2023/08/24 13:57:00;;;;;;;4.72;1.35;;;;;;;;;;5108902;27;20044;-66
2023/08/24 13:59:27;;;;;;;11.80;2.08;;;;;;;;;;5110963;28;20065;-66
2023/08/24 14:01:53;;;;;;;3.10;1.25;;;;;;;;;;5110470;28;20137;-66
2023/08/24 14:04:20;;;;;;;5.95;1.20;;;;;;;;;;5111718;28;20104;-66
2023/08/24 14:06:48;;;;;;;2.83;1.48;;;;;;;;;;5101286;28;20089;-66
2023/08/24 14:09:14;;;;;;;5.45;2.20;;;;;;;;;;5110787;28;20047;-66
2023/08/24 14:11:41;;;;;;;5.38;2.42;;;;;;;;;;5110308;28;20172;-66
2023/08/24 14:14:07;;;;;;;6.55;1.83;;;;;;;;;;5111900;28;20449;-66
2023/08/24 14:16:34;;;;;;;6.78;1.75;;;;;;;;;;5110162;28;20039;-66
2023/08/24 14:19:00;;;;;;;10.55;2.35;;;;;;;;;;5110168;28;20254;-66
2023/08/24 14:21:30;;;;;;;5.85;1.65;;;;;;;;;;5110232;28;20043;-66
2023/08/24 14:24:02;;;;;;;2.58;1.40;;;;;;;;;;5110908;28;20056;-66
2023/08/24 14:26:29;;;;;;;5.63;2.58;;;;;;;;;;5109820;28;20538;-65
2023/08/24 14:28:56;;;;;;;5.72;1.98;;;;;;;;;;5109385;28;20067;-66
2023/08/24 14:31:24;;;;;;;8.70;2.50;;;;;;;;;;5105104;28;20136;-65
2023/08/24 14:33:51;;;;;;;4.00;1.92;;;;;;;;;;5109947;28;20101;-65
2023/08/24 14:36:19;;;;;;;4.93;1.63;;;;;;;;;;5110066;28;20153;-65
2023/08/24 14:38:46;;;;;;;6.68;1.60;;;;;;;;;;5109589;28;20036;-65
2023/08/24 14:41:13;;;;;;;5.75;1.92;;;;;;;;;;5094713;28;20160;-65
2023/08/24 14:43:40;;;;;;;4.22;1.80;;;;;;;;;;5110686;28;20658;-65
2023/08/24 14:46:06;;;;;;;5.47;1.85;;;;;;;;;;5108662;28;20040;-65
2023/08/24 14:48:33;;;;;;;4.03;1.70;;;;;;;;;;5109846;28;20093;-65
2023/08/24 14:51:00;;;;;;;4.47;1.40;;;;;;;;;;5110213;28;20143;-65
2023/08/24 14:53:27;;;;;;;6.00;2.25;;;;;;;;;;5109700;28;20106;-65
2023/08/24 14:55:54;;;;;;;6.03;2.03;;;;;;;;;;5108888;28;20051;-65
2023/08/24 14:58:21;;;;;;;6.25;2.08;;;;;;;;;;5109173;27;20039;-65
2023/08/24 15:00:49;;;;;;;3.65;1.63;;;;;;;;;;5109785;28;20090;-65
2023/08/24 15:03:16;;;;;;;7.18;2.22;;;;;;;;;;5114018;27;20051;-65
2023/08/24 15:05:44;;;;;;;4.90;1.90;;;;;;;;;;5107641;27;20044;-65
2023/08/24 15:08:11;;;;;;;3.28;1.60;;;;;;;;;;5103747;28;20122;-66
2023/08/24 15:10:38;;;;;;;3.60;1.52;;;;;;;;;;5105886;28;20071;-65
2023/08/24 15:13:05;;;;;;;3.38;1.67;;;;;;;;;;5108564;27;20147;-65
2023/08/24 15:15:34;;;;;;;3.70;1.90;;;;;;;;;;5093818;27;20044;-65
2023/08/24 15:18:01;;;;;;;7.50;1.83;;;;;;;;;;5100383;27;20147;-65
2023/08/24 15:20:27;;;;;;;4.20;1.70;;;;;;;;;;5099657;27;20071;-65
2023/08/24 15:22:54;;;;;;;3.03;1.63;;;;;;;;;;5105225;28;20130;-65
2023/08/24 15:25:21;;;;;;;11.38;2.17;;;;;;;;;;5110484;27;20534;-65
2023/08/24 15:27:47;;;;;;;4.13;1.63;;;;;;;;;;5104750;27;20052;-65
2023/08/24 15:30:14;;;;;;;5.00;1.77;;;;;;;;;;5098323;28;20101;-65
2023/08/24 15:32:41;;;;;;;3.67;1.55;;;;;;;;;;5102300;28;20047;-65
2023/08/24 15:35:07;;;;;;;7.40;2.08;;;;;;;;;;5108483;27;20039;-66
2023/08/24 15:37:34;;;;;;;3.78;2.60;;;;;;;;;;5106139;28;20039;-65
2023/08/24 15:40:01;;;;;;;3.92;1.60;;;;;;;;;;5110546;27;20336;-65
2023/08/24 15:42:27;;;;;;;3.55;1.80;;;;;;;;;;5102725;28;20048;-65
2023/08/24 15:44:54;;;;;;;3.45;1.33;;;;;;;;;;5104630;28;20130;-67
2023/08/24 15:47:21;;;;;;;3.60;1.70;;;;;;;;;;5106384;28;20510;-65
2023/08/24 15:49:48;;;;;;;3.15;1.90;;;;;;;;;;5108842;28;20138;-67
2023/08/24 15:52:14;;;;;;;7.68;1.63;;;;;;;;;;5110875;27;20583;-66
2023/08/24 15:54:41;;;;;;;14.43;6.45;;;;;;;;;;5104767;27;20518;-65
2023/08/24 15:57:08;;;;;;;5.93;1.65;;;;;;;;;;5105753;28;20048;-65
2023/08/24 15:59:34;;;;;;;3.42;1.75;;;;;;;;;;5108106;28;20130;-67
2023/08/24 16:02:01;;;;;;;3.70;2.00;;;;;;;;;;5100966;28;20104;-67
2023/08/24 16:04:27;;;;;;;7.03;2.05;;;;;;;;;;5099794;28;20472;-65
2023/08/24 16:06:54;;;;;;;8.10;1.98;;;;;;;;;;5109142;27;20067;-66
2023/08/24 16:09:20;;;;;;;7.05;1.92;;;;;;;;;;5111726;27;20475;-65
2023/08/24 16:11:47;;;;;;;4.53;1.90;;;;;;;;;;5108842;28;20130;-66
2023/08/24 16:14:13;;;;;;;2.65;1.77;;;;;;;;;;5112489;28;20438;-65
2023/08/24 16:16:40;;;;;;;7.43;1.90;;;;;;;;;;5109194;28;20130;-64
2023/08/24 16:19:06;;;;;;;4.65;2.00;;;;;;;;;;5107662;27;20074;-64
2023/08/24 16:21:34;;;;;;;6.68;2.40;;;;;;;;;;5102492;28;20036;-64
2023/08/24 16:24:01;;;;;;;4.28;1.55;;;;;;;;;;5104084;28;20048;-64
2023/08/24 16:26:27;;;;;;;7.18;1.80;;;;;;;;;;5107344;28;20089;-65
2023/08/24 16:28:54;;;;;;;2.95;1.80;;;;;;;;;;5108315;28;20879;-64
2023/08/24 16:31:20;;;;;;;4.30;1.70;;;;;;;;;;5108347;28;20087;-66
2023/08/24 16:33:47;;;;;;;4.05;2.28;;;;;;;;;;5109293;28;20051;-66
2023/08/24 16:36:13;;;;;;;4.93;1.95;;;;;;;;;;5108541;28;20108;-66
2023/08/24 16:38:40;;;;;;;3.35;1.80;;;;;;;;;;5108464;28;20128;-65
2023/08/24 16:41:07;;;;;;;4.45;1.77;;;;;;;;;;5106146;28;20051;-68
2023/08/24 16:43:33;;;;;;;8.10;2.10;;;;;;;;;;5104467;28;20071;-68
2023/08/24 16:45:59;;;;;;;3.20;1.70;;;;;;;;;;5108440;28;20096;-68
2023/08/24 16:48:26;;;;;;;4.78;1.98;;;;;;;;;;5108869;28;20523;-68
2023/08/24 16:50:52;;;;;;;6.32;1.80;;;;;;;;;;5103971;28;20123;-67
2023/08/24 16:53:19;;;;;;;7.40;2.53;;;;;;;;;;5106031;28;20047;-68
2023/08/24 16:55:45;;;;;;;6.38;2.30;;;;;;;;;;5097249;28;20048;-66
2023/08/24 16:58:12;;;;;;;5.78;2.38;;;;;;;;;;5106209;28;20143;-65
2023/08/24 17:00:38;;;;;;;5.63;1.92;;;;;;;;;;5107029;28;20079;-65
2023/08/24 17:03:05;;;;;;;7.93;2.58;;;;;;;;;;5102262;28;20055;-66
2023/08/24 17:05:32;;;;;;;12.70;2.53;;;;;;;;;;5100711;28;20602;-64
2023/08/24 17:08:06;;;;;;;3.78;2.20;;;;;;;;;;5104156;28;20050;-64
2023/08/24 17:10:33;;;;;;;9.05;2.47;;;;;;;;;;5121839;28;20559;-64
2023/08/24 17:12:59;;;;;;;19.98;3.78;;;;;;;;;;5110960;27;20238;-64
2023/08/24 17:15:26;;;;;;;11.38;5.38;;;;;;;;;;5103976;28;20570;-64
2023/08/24 17:17:53;;;;;;;17.80;10.75;;;;;;;;;;5101445;27;20048;-64
2023/08/24 17:20:20;;;;;;;8.98;6.38;;;;;;;;;;5119358;27;20048;-64
2023/08/24 17:22:46;;;;;;;6.95;3.47;;;;;;;;;;5108133;28;20070;-64
2023/08/24 17:25:13;;;;;;;10.25;2.80;;;;;;;;;;5105676;28;20127;-63
2023/08/24 17:27:40;;;;;;;11.57;6.10;;;;;;;;;;5098922;28;20040;-69
2023/08/24 17:30:06;;;;;;;22.48;10.57;;;;;;;;;;5108297;28;20501;-67
2023/08/24 17:32:33;;;;;;;10.02;6.30;;;;;;;;;;5110146;28;20047;-67
2023/08/24 17:34:59;;;;;;;9.15;4.65;;;;;;;;;;5110451;28;20047;-68
2023/08/24 17:37:26;;;;;;;10.13;3.55;;;;;;;;;;5111684;28;20250;-67
2023/08/24 17:39:53;;;;;;;6.80;4.70;;;;;;;;;;5111667;28;20044;-69
2023/08/24 17:42:19;;;;;;;8.57;4.22;;;;;;;;;;5112087;28;20090;-65
2023/08/24 17:44:46;;;;;;;11.27;3.55;;;;;;;;;;5110031;27;20055;-65
2023/08/24 17:47:12;;;;;;;4.05;2.90;;;;;;;;;;5100975;28;20061;-64
2023/08/24 17:49:39;;;;;;;11.75;3.40;;;;;;;;;;5107051;28;20071;-68
2023/08/24 17:52:05;;;;;;;8.63;4.25;;;;;;;;;;5111547;28;20043;-69
2023/08/24 17:54:32;;;;;;;12.30;7.50;;;;;;;;;;5103512;28;20495;-67
2023/08/24 17:56:59;;;;;;;12.55;5.70;;;;;;;;;;5096428;28;20120;-70
2023/08/24 17:59:26;;;;;;;10.48;6.68;;;;;;;;;;5106438;28;20130;-69
2023/08/24 18:01:52;;;;;;;12.05;6.25;;;;;;;;;;5110276;28;20039;-67
2023/08/24 18:04:19;;;;;;;13.98;5.55;;;;;;;;;;5106276;28;20066;-68
2023/08/24 18:06:45;;;;;;;14.18;5.07;;;;;;;;;;5096397;28;20132;-66
2023/08/24 18:09:12;;;;;;;19.90;6.78;;;;;;;;;;5105353;28;20479;-67
2023/08/24 18:11:38;;;;;;;15.70;6.35;;;;;;;;;;5103902;27;20048;-67
2023/08/24 18:14:05;;;;;;;19.67;5.45;;;;;;;;;;5105779;28;20051;-66
2023/08/24 18:16:31;;;;;;;12.25;4.40;;;;;;;;;;5109773;28;20126;-66
2023/08/24 18:18:58;;;;;;;9.63;5.68;;;;;;;;;;5112011;28;20550;-66
2023/08/24 18:21:25;;;;;;;13.48;4.07;;;;;;;;;;5111306;28;20067;-67
2023/08/24 18:23:51;;;;;;;20.10;4.70;;;;;;;;;;5111984;28;20047;-65
2023/08/24 18:26:18;;;;;;;8.25;4.18;;;;;;;;;;5115105;27;20108;-67
2023/08/24 18:28:44;;;;;;;8.20;3.58;;;;;;;;;;5123568;27;20110;-65
2023/08/24 18:31:11;;;;;;;11.50;4.57;;;;;;;;;;5111098;28;20087;-67
2023/08/24 18:33:37;;;;;;;7.50;3.72;;;;;;;;;;5111263;28;20075;-68
2023/08/24 18:36:04;;;;;;;9.02;3.95;;;;;;;;;;5110892;28;20136;-67
2023/08/24 18:38:33;;;;;;;7.75;4.57;;;;;;;;;;5112909;27;20043;-69
2023/08/24 18:41:00;;;;;;;8.35;5.30;;;;;;;;;;5131346;27;20039;-68
2023/08/24 18:43:28;;;;;;;12.85;6.68;;;;;;;;;;5111104;28;20105;-68
2023/08/24 18:45:59;;;;;;;14.90;9.82;;;;;;;;;;5111489;28;20043;-66
2023/08/24 18:48:29;;;;;;;14.98;8.35;;;;;;;;;;5110208;28;20519;-68
2023/08/24 18:50:55;;;;;;;16.35;11.63;;;;;;;;;;5111054;28;20040;-65
2023/08/24 18:53:22;;;;;;;17.23;9.80;;;;;;;;;;5110070;28;20039;-66
2023/08/24 18:55:52;;;;;;;10.43;7.38;;;;;;;;;;5111334;28;20142;-67
2023/08/24 18:58:18;;;;;;;10.75;6.15;;;;;;;;;;5102626;28;20104;-66
2023/08/24 19:00:45;;;;;;;10.52;5.20;;;;;;;;;;5110727;28;20039;-66
2023/08/24 19:03:11;;;;;;;14.30;5.20;;;;;;;;;;5110132;28;20330;-66
2023/08/24 19:05:39;;;;;;;9.20;4.75;;;;;;;;;;5108927;28;20039;-65
2023/08/24 19:08:06;;;;;;;8.20;4.75;;;;;;;;;;5108955;28;20047;-65
2023/08/24 19:10:32;;;;;;;14.07;6.28;;;;;;;;;;5110433;28;20089;-66
2023/08/24 19:12:59;;;;;;;8.20;5.45;;;;;;;;;;5108864;28;20399;-65
2023/08/24 19:15:25;;;;;;;7.47;5.50;;;;;;;;;;5107285;27;20480;-65
2023/08/24 19:17:52;;;;;;;11.73;5.25;;;;;;;;;;5106846;28;20543;-65
2023/08/24 19:20:19;;;;;;;9.77;5.80;;;;;;;;;;5109997;28;20047;-64
2023/08/24 19:22:45;;;;;;;12.20;5.00;;;;;;;;;;5109962;28;20079;-65
2023/08/24 19:25:13;;;;;;;8.23;4.15;;;;;;;;;;5112263;27;20379;-65
2023/08/24 19:27:40;;;;;;;9.23;5.68;;;;;;;;;;5108788;28;20047;-65
2023/08/24 19:30:07;;;;;;;8.70;5.78;;;;;;;;;;5109819;28;20127;-63
2023/08/24 19:32:34;;;;;;;9.25;5.07;;;;;;;;;;5109336;27;20079;-64
2023/08/24 19:35:02;;;;;;;16.02;10.55;;;;;;;;;;5110030;28;20058;-64
2023/08/24 19:37:28;;;;;;;30.17;19.10;;;;;;;;;;5109852;28;20672;-63
2023/08/24 19:39:55;;;;;;;16.13;9.75;;;;;;;;;;5110340;27;20353;-63
2023/08/24 19:42:21;;;;;;;13.00;9.10;;;;;;;;;;5099930;28;20054;-64
2023/08/24 19:44:48;;;;;;;10.52;6.35;;;;;;;;;;5108583;28;20090;-64
2023/08/24 19:47:14;;;;;;;8.38;5.70;;;;;;;;;;5109433;28;20058;-64
2023/08/24 19:49:41;;;;;;;8.65;5.20;;;;;;;;;;5113037;27;20078;-65
2023/08/24 19:52:07;;;;;;;8.52;5.93;;;;;;;;;;5113754;27;20055;-63
2023/08/24 19:54:33;;;;;;;8.30;5.22;;;;;;;;;;5109960;28;20128;-65
2023/08/24 19:57:00;;;;;;;960.00;728.25;;;;;;;;;;5108967;28;20527;-66
2023/08/24 19:59:26;;;;;;;111.43;86.72;;;;;;;;;;5110057;28;20127;-68
2023/08/24 20:01:53;;;;;;;22.95;16.33;;;;;;;;;;5115591;27;20043;-66
2023/08/24 20:04:20;;;;;;;13.93;6.00;;;;;;;;;;5110092;28;20048;-67
2023/08/24 20:06:47;;;;;;;16.20;6.53;;;;;;;;;;5114551;27;20475;-68
2023/08/24 20:09:14;;;;;;;10.43;8.05;;;;;;;;;;5127405;27;20075;-68
2023/08/24 20:11:41;;;;;;;12.50;6.65;;;;;;;;;;5109377;28;20082;-67
2023/08/24 20:14:09;;;;;;;11.18;5.65;;;;;;;;;;5108774;27;20429;-64
2023/08/24 20:16:36;;;;;;;11.07;6.47;;;;;;;;;;5109359;28;20043;-66
2023/08/24 20:19:03;;;;;;;13.85;6.13;;;;;;;;;;5108912;28;20119;-65
2023/08/24 20:21:30;;;;;;;17.30;7.78;;;;;;;;;;5119484;27;20046;-66
2023/08/24 20:23:56;;;;;;;8.77;6.28;;;;;;;;;;5116426;27;20534;-67
2023/08/24 20:26:24;;;;;;;15.32;6.25;;;;;;;;;;5126519;27;20044;-65
2023/08/24 20:28:51;;;;;;;12.15;7.50;;;;;;;;;;5108254;28;20044;-64
2023/08/24 20:31:18;;;;;;;11.90;7.22;;;;;;;;;;5108799;28;20150;-65
2023/08/24 20:33:45;;;;;;;12.82;6.15;;;;;;;;;;5108706;28;20373;-65
2023/08/24 20:36:11;;;;;;;10.82;6.82;;;;;;;;;;5105926;28;20090;-66
2023/08/24 20:38:37;;;;;;;8.35;5.60;;;;;;;;;;5107661;28;20487;-65
2023/08/24 20:41:04;;;;;;;10.98;6.22;;;;;;;;;;5108473;28;20086;-67
2023/08/24 20:43:30;;;;;;;9.73;6.50;;;;;;;;;;5109007;28;20046;-66
2023/08/24 20:45:57;;;;;;;10.77;6.72;;;;;;;;;;5106683;28;20048;-65
2023/08/24 20:48:23;;;;;;;7.82;6.45;;;;;;;;;;5106939;28;20054;-65
2023/08/24 20:50:54;;;;;;;12.07;6.22;;;;;;;;;;5102513;28;20062;-66
2023/08/24 20:53:20;;;;;;;9.45;6.03;;;;;;;;;;5111493;27;20048;-64
2023/08/24 20:55:47;;;;;;;11.73;6.57;;;;;;;;;;5112952;27;20047;-66
2023/08/24 20:58:16;;;;;;;12.38;7.40;;;;;;;;;;5108162;28;20481;-67
2023/08/24 21:00:44;;;;;;;9.53;6.40;;;;;;;;;;5102577;28;20055;-66
2023/08/24 21:03:10;;;;;;;8.68;6.45;;;;;;;;;;5127067;27;20137;-65
2023/08/24 21:05:38;;;;;;;14.90;6.82;;;;;;;;;;5119240;27;20073;-66
2023/08/24 21:08:05;;;;;;;9.07;6.35;;;;;;;;;;5113704;27;20449;-66
2023/08/24 21:10:31;;;;;;;8.18;6.45;;;;;;;;;;5118684;27;20047;-66
2023/08/24 21:12:59;;;;;;;11.35;6.50;;;;;;;;;;5115791;27;20057;-68
2023/08/24 21:15:26;;;;;;;14.25;6.25;;;;;;;;;;5116196;27;20588;-66
2023/08/24 21:17:53;;;;;;;8.00;5.20;;;;;;;;;;5110205;27;20059;-66
2023/08/24 21:20:21;;;;;;;11.55;6.10;;;;;;;;;;5110893;27;20122;-66
2023/08/24 21:22:48;;;;;;;11.63;5.55;;;;;;;;;;5113969;27;20454;-70
2023/08/24 21:25:17;;;;;;;6.90;4.97;;;;;;;;;;5112561;28;20043;-66
2023/08/24 21:27:43;;;;;;;6.65;4.63;;;;;;;;;;5111436;27;20036;-66
2023/08/24 21:30:10;;;;;;;7.85;5.22;;;;;;;;;;5112248;28;20054;-66
2023/08/24 21:32:36;;;;;;;15.98;5.43;;;;;;;;;;5110925;28;20112;-66
2023/08/24 21:35:03;;;;;;;16.98;6.10;;;;;;;;;;5111627;28;20491;-66
2023/08/24 21:37:31;;;;;;;9.98;5.07;;;;;;;;;;5111227;28;20096;-66
2023/08/24 21:39:57;;;;;;;10.57;4.72;;;;;;;;;;5112806;28;20526;-66
2023/08/24 21:42:24;;;;;;;12.73;5.07;;;;;;;;;;5112021;28;20053;-65
2023/08/24 21:44:50;;;;;;;8.15;4.72;;;;;;;;;;5111942;28;20147;-66
2023/08/24 21:47:17;;;;;;;8.93;4.25;;;;;;;;;;5111245;28;20047;-66
2023/08/24 21:49:43;;;;;;;12.75;4.05;;;;;;;;;;5112097;28;20055;-65
2023/08/24 21:52:10;;;;;;;8.65;5.93;;;;;;;;;;5111272;28;20478;-66
2023/08/24 21:54:36;;;;;;;14.65;5.97;;;;;;;;;;5111538;28;20079;-67
2023/08/24 21:57:02;;;;;;;8.43;5.25;;;;;;;;;;5111203;28;20075;-65
2023/08/24 21:59:29;;;;;;;10.90;5.35;;;;;;;;;;5111530;28;20097;-66
2023/08/24 22:01:55;;;;;;;8.68;5.53;;;;;;;;;;5111189;28;20098;-68
2023/08/24 22:04:22;;;;;;;18.95;11.30;;;;;;;;;;5110169;28;20189;-65
2023/08/24 22:06:49;;;;;;;19.75;11.95;;;;;;;;;;5106593;28;20065;-65
2023/08/24 22:09:16;;;;;;;14.45;9.75;;;;;;;;;;5111296;28;20120;-65
2023/08/24 22:11:43;;;;;;;10.15;8.10;;;;;;;;;;5110917;28;20074;-68
2023/08/24 22:14:10;;;;;;;10.43;6.20;;;;;;;;;;5111361;28;20044;-65
2023/08/24 22:16:36;;;;;;;12.00;7.13;;;;;;;;;;5110826;28;20101;-68
2023/08/24 22:19:03;;;;;;;11.25;6.78;;;;;;;;;;5111144;28;20047;-68
2023/08/24 22:21:38;;;;;;;9.45;5.40;;;;;;;;;;5110936;28;20418;-67
2023/08/24 22:24:05;;;;;;;10.73;4.78;;;;;;;;;;5111734;28;20058;-66
2023/08/24 22:26:31;;;;;;;8.93;5.28;;;;;;;;;;5110509;28;20035;-65
2023/08/24 22:28:58;;;;;;;7.95;4.55;;;;;;;;;;5111260;28;20124;-70
2023/08/24 22:31:24;;;;;;;9.13;5.70;;;;;;;;;;5109965;28;20086;-68
2023/08/24 22:33:51;;;;;;;6.07;4.55;;;;;;;;;;5109988;28;20051;-68
2023/08/24 22:36:18;;;;;;;7.97;4.75;;;;;;;;;;5109709;28;20050;-66
2023/08/24 22:38:44;;;;;;;6.78;4.55;;;;;;;;;;5111195;28;20052;-65
2023/08/24 22:41:11;;;;;;;12.35;6.25;;;;;;;;;;5110830;28;20048;-65
2023/08/24 22:43:37;;;;;;;9.48;4.63;;;;;;;;;;5109469;28;20126;-65
2023/08/24 22:46:04;;;;;;;11.40;5.85;;;;;;;;;;5110503;28;20498;-68
2023/08/24 22:48:30;;;;;;;12.57;5.57;;;;;;;;;;5110898;28;20142;-66
2023/08/24 22:50:57;;;;;;;7.05;5.10;;;;;;;;;;5110456;27;20444;-65
2023/08/24 22:53:23;;;;;;;10.02;5.85;;;;;;;;;;5110344;27;20158;-67
2023/08/24 22:55:50;;;;;;;8.88;6.05;;;;;;;;;;5110859;28;20083;-66
2023/08/24 22:58:16;;;;;;;11.93;5.15;;;;;;;;;;5110094;28;20043;-65
2023/08/24 23:00:43;;;;;;;11.80;5.82;;;;;;;;;;5110328;28;20047;-64
2023/08/24 23:03:11;;;;;;;10.68;7.90;;;;;;;;;;5109795;28;20463;-66
2023/08/24 23:05:39;;;;;;;7.70;5.35;;;;;;;;;;5110460;28;20039;-66
2023/08/24 23:08:06;;;;;;;15.93;8.27;;;;;;;;;;5109624;28;20087;-68
2023/08/24 23:10:33;;;;;;;7.90;6.40;;;;;;;;;;5111426;28;20510;-65
2023/08/24 23:13:00;;;;;;;8.52;5.90;;;;;;;;;;5110289;28;20138;-67
2023/08/24 23:15:26;;;;;;;8.68;5.20;;;;;;;;;;5110759;28;20089;-64
2023/08/24 23:17:53;;;;;;;8.00;5.45;;;;;;;;;;5109678;28;20126;-64
2023/08/24 23:20:20;;;;;;;14.93;6.05;;;;;;;;;;5110804;28;20634;-66
2023/08/24 23:22:46;;;;;;;8.77;4.82;;;;;;;;;;5109951;28;20143;-66
2023/08/24 23:25:13;;;;;;;10.48;4.97;;;;;;;;;;5110308;28;20625;-69
2023/08/24 23:27:40;;;;;;;5.70;5.00;;;;;;;;;;5110087;28;20082;-66
2023/08/24 23:30:08;;;;;;;12.77;5.70;;;;;;;;;;5110223;28;20292;-66
2023/08/24 23:32:34;;;;;;;11.73;5.53;;;;;;;;;;5109904;28;20079;-67
2023/08/24 23:35:01;;;;;;;9.45;5.50;;;;;;;;;;5109601;28;20403;-70
2023/08/24 23:37:27;;;;;;;11.65;5.03;;;;;;;;;;5110035;28;20048;-67
2023/08/24 23:39:53;;;;;;;10.00;5.63;;;;;;;;;;5109929;28;20389;-65
2023/08/24 23:42:21;;;;;;;11.75;5.55;;;;;;;;;;5109984;28;20533;-65
2023/08/24 23:44:49;;;;;;;8.95;5.03;;;;;;;;;;5110069;28;20437;-65
2023/08/24 23:47:15;;;;;;;9.32;4.57;;;;;;;;;;5109957;27;20246;-65
2023/08/24 23:49:42;;;;;;;13.48;5.25;;;;;;;;;;5110019;28;20100;-65
2023/08/24 23:52:08;;;;;;;8.02;5.63;;;;;;;;;;5109450;28;20040;-65
2023/08/24 23:54:34;;;;;;;7.47;4.95;;;;;;;;;;5108477;28;20130;-64
2023/08/24 23:57:01;;;;;;;9.23;5.20;;;;;;;;;;5109548;28;20050;-64
2023/08/24 23:59:28;;;;;;;10.38;4.82;;;;;;;;;;5109733;28;20043;-64
